الصفحة الرئيسية
METAR-TAF:

METAR-TAF

مطار :

لابينرنتا, فنلندا

دائرة عرض: 61-02-45N, خط طول: 028-08-55E, ارتفاع: 106 متر

مراقبة الطقس الحالي

تاريخ ووقت الإصدار 33 دقيقة قبل الساعة 01:50UTC
ريح 4 عقدة من الشرق
درجة الحرارة 18°درجة مئوية
الرطوبة 88%
ضغط 1012 hPa
الرؤية 10 كم أو أكثر
الغيوم لا تقل 1500 م ولا وجود لمزنة ركامية السحاب الأسود

METAR: EFLP 140150Z AUTO 09004KT CAVOK 18/16 Q1012

زمن: 05:23 (02:23 UTC)

توقعات

تاريخ ووقت الإصدار 14ساعات و 57 دقيقة قبل الساعة 11:26UTC
التوقعات صالحة من13 الساعة 12 UTC إلى 13 الساعة 15 UTC
ريح 5 عقدة من الشمال
الرؤية 10 كم أو أكثر
غيوم قليلة على ارتفاع 4000 قدم
نظرية الاحتمالات 40% :
مؤقت
من 13 الساعة 12 UTC إلى 13 الساعة 15 UTC
غيوم قليلة على ارتفاع 4000 قدم, مزن ركامية عمودية.

TAF: EFLP 131126Z 1312/1315 36005KT 9999 FEW040 PROB40 TEMPO 1312/1315 FEW040TCU

أرصاد الطقس والتوقعات من أكثر من 4000 مطار (تقارير الطقس للمطار METAR والتنبؤ بالطقس بالمطارTAF).

المحطات المتاحة هي النقط الصفراء والحمراء على الخريطة.

حرك المؤشر فوق النقطة لمعرفة اسم المحطة.

ثم انقر لمعرفة أرصاد وتوقعات الطقس.

لتغيير الخارطة: اضغط على الأزرار الخضراء مع رمز الصليب الأسود للتكبير. على الزر الأخضر مع شرطة للتصغير، أو على الأسهم الخضراء للخرائط المجاورة.


METAR-TAF: